Terminal Aerodrome Forecast
Issued by NWS St Louis, MO

Home | Current Version | Previous Version | Text Only | Print | Product List | Glossary On
Versions: 1 2 3 4 5 6 7 8 9 10 11 12 13 14 15 16 17 18 19 20 21 22 23 24 25 26 27 28
000
FTUS43 KLSX 221615 AAC
TAFCOU
TAF AMD
KCOU 221615Z 2216/2312 19010KT 1/2SM FG VV002
     FM221700 20012KT 2SM BR BKN006
     FM221800 22014KT 5SM BR BKN012
     FM221900 20011G17KT P6SM FEW150
     FM230000 21005KT P6SM FEW250
     FM231000 07004KT P6SM SCT200=

USA.gov is the U.S. government's official web portal to all federal, state and local government web resources and services.